sensor_id;sensor_type;location;lat;lon;timestamp;P1;durP1;ratioP1;P2;durP2;ratioP2
15271;SDS011;7737;51.578;7.268;2023-04-01T00:01:50;3.67;;;1.20;;
15271;SDS011;7737;51.578;7.268;2023-04-01T00:04:17;3.75;;;1.40;;
15271;SDS011;7737;51.578;7.268;2023-04-01T00:06:43;4.40;;;0.85;;
15271;SDS011;7737;51.578;7.268;2023-04-01T00:09:10;3.83;;;1.02;;
15271;SDS011;7737;51.578;7.268;2023-04-01T00:11:36;3.53;;;1.00;;
15271;SDS011;7737;51.578;7.268;2023-04-01T00:14:03;1.58;;;0.80;;
15271;SDS011;7737;51.578;7.268;2023-04-01T00:16:31;2.45;;;1.00;;
15271;SDS011;7737;51.578;7.268;2023-04-01T00:18:58;4.40;;;1.40;;
15271;SDS011;7737;51.578;7.268;2023-04-01T00:21:24;3.40;;;0.90;;
15271;SDS011;7737;51.578;7.268;2023-04-01T00:23:51;4.45;;;1.17;;
15271;SDS011;7737;51.578;7.268;2023-04-01T00:26:17;3.08;;;1.10;;
15271;SDS011;7737;51.578;7.268;2023-04-01T00:28:46;4.03;;;1.20;;
15271;SDS011;7737;51.578;7.268;2023-04-01T00:31:13;2.78;;;1.10;;
15271;SDS011;7737;51.578;7.268;2023-04-01T00:33:41;2.88;;;1.00;;
15271;SDS011;7737;51.578;7.268;2023-04-01T00:36:09;5.13;;;1.27;;
15271;SDS011;7737;51.578;7.268;2023-04-01T00:38:37;3.95;;;1.35;;
15271;SDS011;7737;51.578;7.268;2023-04-01T00:41:04;4.38;;;1.10;;
15271;SDS011;7737;51.578;7.268;2023-04-01T00:43:31;3.33;;;1.20;;
15271;SDS011;7737;51.578;7.268;2023-04-01T00:45:57;4.80;;;1.40;;
15271;SDS011;7737;51.578;7.268;2023-04-01T00:48:25;2.60;;;0.98;;
15271;SDS011;7737;51.578;7.268;2023-04-01T00:50:56;5.15;;;1.08;;
15271;SDS011;7737;51.578;7.268;2023-04-01T00:53:25;2.05;;;1.02;;
15271;SDS011;7737;51.578;7.268;2023-04-01T00:55:55;3.85;;;0.90;;
15271;SDS011;7737;51.578;7.268;2023-04-01T00:58:26;4.88;;;1.00;;
15271;SDS011;7737;51.578;7.268;2023-04-01T01:00:56;2.50;;;0.90;;
15271;SDS011;7737;51.578;7.268;2023-04-01T01:03:25;2.22;;;0.80;;
15271;SDS011;7737;51.578;7.268;2023-04-01T01:11:52;3.25;;;1.00;;
15271;SDS011;7737;51.578;7.268;2023-04-01T01:14:27;3.35;;;0.80;;
15271;SDS011;7737;51.578;7.268;2023-04-01T01:17:04;1.60;;;0.70;;
15271;SDS011;7737;51.578;7.268;2023-04-01T01:19:51;3.33;;;0.85;;
15271;SDS011;7737;51.578;7.268;2023-04-01T01:22:38;3.50;;;1.00;;
15271;SDS011;7737;51.578;7.268;2023-04-01T01:25:21;3.55;;;0.98;;
15271;SDS011;7737;51.578;7.268;2023-04-01T01:27:57;2.40;;;1.08;;
15271;SDS011;7737;51.578;7.268;2023-04-01T01:30:40;3.25;;;1.08;;
15271;SDS011;7737;51.578;7.268;2023-04-01T01:33:20;2.15;;;0.98;;
15271;SDS011;7737;51.578;7.268;2023-04-01T01:35:56;2.00;;;0.88;;
15271;SDS011;7737;51.578;7.268;2023-04-01T01:38:26;2.15;;;0.98;;
15271;SDS011;7737;51.578;7.268;2023-04-01T01:40:57;2.25;;;0.73;;
15271;SDS011;7737;51.578;7.268;2023-04-01T01:43:26;1.52;;;0.82;;
15271;SDS011;7737;51.578;7.268;2023-04-01T01:45:57;3.63;;;0.80;;
15271;SDS011;7737;51.578;7.268;2023-04-01T01:48:27;2.38;;;0.70;;
15271;SDS011;7737;51.578;7.268;2023-04-01T01:50:57;2.95;;;0.85;;
15271;SDS011;7737;51.578;7.268;2023-04-01T01:53:23;2.33;;;0.90;;
15271;SDS011;7737;51.578;7.268;2023-04-01T01:55:50;1.80;;;0.80;;
15271;SDS011;7737;51.578;7.268;2023-04-01T01:58:17;1.30;;;0.60;;
15271;SDS011;7737;51.578;7.268;2023-04-01T02:00:49;2.33;;;0.80;;
15271;SDS011;7737;51.578;7.268;2023-04-01T02:03:19;3.25;;;0.88;;
15271;SDS011;7737;51.578;7.268;2023-04-01T02:05:48;1.00;;;0.50;;
15271;SDS011;7737;51.578;7.268;2023-04-01T02:08:19;3.97;;;0.90;;
15271;SDS011;7737;51.578;7.268;2023-04-01T02:10:51;2.60;;;0.77;;
15271;SDS011;7737;51.578;7.268;2023-04-01T02:13:24;1.60;;;0.63;;
15271;SDS011;7737;51.578;7.268;2023-04-01T02:15:56;1.95;;;0.70;;
15271;SDS011;7737;51.578;7.268;2023-04-01T02:18:28;1.55;;;0.65;;
15271;SDS011;7737;51.578;7.268;2023-04-01T02:20:56;1.38;;;0.73;;
15271;SDS011;7737;51.578;7.268;2023-04-01T02:23:26;2.25;;;0.70;;
15271;SDS011;7737;51.578;7.268;2023-04-01T02:25:54;4.05;;;0.60;;
15271;SDS011;7737;51.578;7.268;2023-04-01T02:28:20;1.80;;;0.70;;
15271;SDS011;7737;51.578;7.268;2023-04-01T02:30:49;3.00;;;0.80;;
15271;SDS011;7737;51.578;7.268;2023-04-01T02:36:38;3.42;;;0.98;;
15271;SDS011;7737;51.578;7.268;2023-04-01T02:39:06;1.67;;;0.70;;
15271;SDS011;7737;51.578;7.268;2023-04-01T02:41:38;3.33;;;0.90;;
15271;SDS011;7737;51.578;7.268;2023-04-01T02:44:05;2.85;;;1.10;;
15271;SDS011;7737;51.578;7.268;2023-04-01T02:46:32;3.00;;;1.00;;
15271;SDS011;7737;51.578;7.268;2023-04-01T02:48:59;2.53;;;0.70;;
15271;SDS011;7737;51.578;7.268;2023-04-01T02:51:25;2.60;;;0.95;;
15271;SDS011;7737;51.578;7.268;2023-04-01T02:53:52;2.00;;;0.80;;
15271;SDS011;7737;51.578;7.268;2023-04-01T02:56:20;2.90;;;0.80;;
15271;SDS011;7737;51.578;7.268;2023-04-01T02:58:46;3.08;;;0.70;;
15271;SDS011;7737;51.578;7.268;2023-04-01T03:01:13;1.58;;;0.70;;
15271;SDS011;7737;51.578;7.268;2023-04-01T03:03:40;1.40;;;0.70;;
15271;SDS011;7737;51.578;7.268;2023-04-01T03:06:07;2.20;;;0.80;;
15271;SDS011;7737;51.578;7.268;2023-04-01T03:08:35;2.03;;;0.70;;
15271;SDS011;7737;51.578;7.268;2023-04-01T03:11:02;3.13;;;0.50;;
15271;SDS011;7737;51.578;7.268;2023-04-01T03:13:30;2.40;;;0.60;;
15271;SDS011;7737;51.578;7.268;2023-04-01T03:15:57;2.30;;;0.80;;
15271;SDS011;7737;51.578;7.268;2023-04-01T03:18:24;1.60;;;0.70;;
15271;SDS011;7737;51.578;7.268;2023-04-01T03:20:50;1.52;;;0.60;;
15271;SDS011;7737;51.578;7.268;2023-04-01T03:23:17;1.55;;;0.60;;
15271;SDS011;7737;51.578;7.268;2023-04-01T03:25:44;3.17;;;0.70;;
15271;SDS011;7737;51.578;7.268;2023-04-01T03:28:11;1.95;;;0.70;;
15271;SDS011;7737;51.578;7.268;2023-04-01T03:30:39;2.42;;;0.80;;
15271;SDS011;7737;51.578;7.268;2023-04-01T03:33:06;1.92;;;0.70;;
15271;SDS011;7737;51.578;7.268;2023-04-01T03:35:32;2.85;;;0.75;;
15271;SDS011;7737;51.578;7.268;2023-04-01T03:38:00;3.67;;;1.02;;
15271;SDS011;7737;51.578;7.268;2023-04-01T03:40:27;2.72;;;0.60;;
15271;SDS011;7737;51.578;7.268;2023-04-01T03:42:53;1.40;;;0.50;;
15271;SDS011;7737;51.578;7.268;2023-04-01T03:45:21;1.75;;;0.50;;
15271;SDS011;7737;51.578;7.268;2023-04-01T03:47:49;1.95;;;0.55;;
15271;SDS011;7737;51.578;7.268;2023-04-01T03:50:15;1.17;;;0.60;;
15271;SDS011;7737;51.578;7.268;2023-04-01T03:52:42;1.55;;;0.50;;
15271;SDS011;7737;51.578;7.268;2023-04-01T03:55:08;1.52;;;0.50;;
15271;SDS011;7737;51.578;7.268;2023-04-01T03:57:34;1.08;;;0.50;;
15271;SDS011;7737;51.578;7.268;2023-04-01T04:00:01;0.95;;;0.50;;
15271;SDS011;7737;51.578;7.268;2023-04-01T04:02:28;1.63;;;0.65;;
15271;SDS011;7737;51.578;7.268;2023-04-01T04:04:55;1.52;;;0.60;;
15271;SDS011;7737;51.578;7.268;2023-04-01T04:07:22;1.45;;;0.70;;
15271;SDS011;7737;51.578;7.268;2023-04-01T04:09:48;1.27;;;0.80;;
15271;SDS011;7737;51.578;7.268;2023-04-01T04:12:15;2.10;;;1.00;;
15271;SDS011;7737;51.578;7.268;2023-04-01T04:14:42;2.50;;;1.27;;
15271;SDS011;7737;51.578;7.268;2023-04-01T04:17:09;1.45;;;1.00;;
15271;SDS011;7737;51.578;7.268;2023-04-01T04:19:38;2.58;;;1.20;;
15271;SDS011;7737;51.578;7.268;2023-04-01T04:22:06;1.67;;;1.13;;
15271;SDS011;7737;51.578;7.268;2023-04-01T04:24:33;1.80;;;0.85;;
15271;SDS011;7737;51.578;7.268;2023-04-01T04:27:00;1.73;;;0.80;;
15271;SDS011;7737;51.578;7.268;2023-04-01T04:29:26;1.63;;;1.02;;
15271;SDS011;7737;51.578;7.268;2023-04-01T04:31:53;2.20;;;0.93;;
15271;SDS011;7737;51.578;7.268;2023-04-01T04:34:19;1.58;;;0.85;;
15271;SDS011;7737;51.578;7.268;2023-04-01T04:36:47;1.98;;;0.90;;
15271;SDS011;7737;51.578;7.268;2023-04-01T04:39:15;1.17;;;0.70;;
15271;SDS011;7737;51.578;7.268;2023-04-01T04:41:42;2.75;;;0.90;;
15271;SDS011;7737;51.578;7.268;2023-04-01T04:44:08;2.80;;;1.00;;
15271;SDS011;7737;51.578;7.268;2023-04-01T04:46:35;1.95;;;1.00;;
15271;SDS011;7737;51.578;7.268;2023-04-01T04:49:02;2.65;;;1.10;;
15271;SDS011;7737;51.578;7.268;2023-04-01T04:51:29;1.27;;;1.00;;
15271;SDS011;7737;51.578;7.268;2023-04-01T04:53:55;1.98;;;1.20;;
15271;SDS011;7737;51.578;7.268;2023-04-01T04:56:23;2.92;;;1.42;;
15271;SDS011;7737;51.578;7.268;2023-04-01T04:58:50;1.23;;;1.10;;
15271;SDS011;7737;51.578;7.268;2023-04-01T05:01:17;1.77;;;1.17;;
15271;SDS011;7737;51.578;7.268;2023-04-01T05:03:44;1.60;;;1.50;;
15271;SDS011;7737;51.578;7.268;2023-04-01T05:06:12;2.58;;;1.20;;
15271;SDS011;7737;51.578;7.268;2023-04-01T05:08:40;1.92;;;1.70;;
15271;SDS011;7737;51.578;7.268;2023-04-01T05:11:09;1.95;;;1.20;;
15271;SDS011;7737;51.578;7.268;2023-04-01T05:13:38;2.20;;;1.20;;
15271;SDS011;7737;51.578;7.268;2023-04-01T05:16:07;2.28;;;1.45;;
15271;SDS011;7737;51.578;7.268;2023-04-01T05:18:34;2.45;;;1.40;;
15271;SDS011;7737;51.578;7.268;2023-04-01T05:21:01;1.92;;;1.45;;
15271;SDS011;7737;51.578;7.268;2023-04-01T05:23:27;1.35;;;1.20;;
15271;SDS011;7737;51.578;7.268;2023-04-01T05:25:54;2.53;;;1.50;;
15271;SDS011;7737;51.578;7.268;2023-04-01T05:28:22;2.13;;;1.40;;
15271;SDS011;7737;51.578;7.268;2023-04-01T05:30:50;1.60;;;1.50;;
15271;SDS011;7737;51.578;7.268;2023-04-01T05:33:17;2.25;;;1.50;;
15271;SDS011;7737;51.578;7.268;2023-04-01T05:35:43;1.80;;;1.35;;
15271;SDS011;7737;51.578;7.268;2023-04-01T05:38:10;1.52;;;1.30;;
15271;SDS011;7737;51.578;7.268;2023-04-01T05:40:36;2.00;;;1.58;;
15271;SDS011;7737;51.578;7.268;2023-04-01T05:43:03;1.45;;;1.30;;
15271;SDS011;7737;51.578;7.268;2023-04-01T05:45:29;1.30;;;1.20;;
15271;SDS011;7737;51.578;7.268;2023-04-01T05:47:58;1.90;;;1.40;;
15271;SDS011;7737;51.578;7.268;2023-04-01T05:50:25;3.60;;;1.55;;
15271;SDS011;7737;51.578;7.268;2023-04-01T05:52:52;1.98;;;1.30;;
15271;SDS011;7737;51.578;7.268;2023-04-01T05:55:18;2.28;;;1.33;;
15271;SDS011;7737;51.578;7.268;2023-04-01T05:57:45;1.27;;;1.10;;
15271;SDS011;7737;51.578;7.268;2023-04-01T06:00:13;4.22;;;3.13;;
15271;SDS011;7737;51.578;7.268;2023-04-01T06:02:40;10.43;;;6.88;;
15271;SDS011;7737;51.578;7.268;2023-04-01T06:05:17;2.30;;;2.00;;
15271;SDS011;7737;51.578;7.268;2023-04-01T06:07:45;5.28;;;4.35;;
15271;SDS011;7737;51.578;7.268;2023-04-01T06:10:13;3.80;;;3.33;;
15271;SDS011;7737;51.578;7.268;2023-04-01T06:12:45;1.98;;;1.83;;
15271;SDS011;7737;51.578;7.268;2023-04-01T06:15:24;3.22;;;2.92;;
15271;SDS011;7737;51.578;7.268;2023-04-01T06:18:00;3.95;;;1.77;;
15271;SDS011;7737;51.578;7.268;2023-04-01T06:20:39;1.83;;;1.70;;
15271;SDS011;7737;51.578;7.268;2023-04-01T06:23:23;2.90;;;2.30;;
15271;SDS011;7737;51.578;7.268;2023-04-01T06:26:05;2.45;;;2.25;;
15271;SDS011;7737;51.578;7.268;2023-04-01T06:28:47;2.90;;;2.50;;
15271;SDS011;7737;51.578;7.268;2023-04-01T06:31:31;2.63;;;2.28;;
15271;SDS011;7737;51.578;7.268;2023-04-01T06:34:08;3.13;;;2.60;;
15271;SDS011;7737;51.578;7.268;2023-04-01T06:36:53;3.25;;;2.83;;
15271;SDS011;7737;51.578;7.268;2023-04-01T06:39:39;2.50;;;2.30;;
15271;SDS011;7737;51.578;7.268;2023-04-01T06:42:20;4.00;;;2.58;;
15271;SDS011;7737;51.578;7.268;2023-04-01T06:45:00;2.65;;;2.45;;
15271;SDS011;7737;51.578;7.268;2023-04-01T06:47:40;2.22;;;1.90;;
15271;SDS011;7737;51.578;7.268;2023-04-01T06:50:19;1.63;;;1.52;;
15271;SDS011;7737;51.578;7.268;2023-04-01T06:52:53;1.80;;;1.70;;
15271;SDS011;7737;51.578;7.268;2023-04-01T06:55:26;2.25;;;2.05;;
15271;SDS011;7737;51.578;7.268;2023-04-01T06:58:00;2.38;;;1.60;;
15271;SDS011;7737;51.578;7.268;2023-04-01T07:00:31;2.47;;;1.88;;
15271;SDS011;7737;51.578;7.268;2023-04-01T07:03:02;2.08;;;1.75;;
15271;SDS011;7737;51.578;7.268;2023-04-01T07:05:36;2.47;;;2.28;;
15271;SDS011;7737;51.578;7.268;2023-04-01T07:08:05;3.53;;;3.22;;
15271;SDS011;7737;51.578;7.268;2023-04-01T07:10:40;3.58;;;3.28;;
15271;SDS011;7737;51.578;7.268;2023-04-01T07:13:13;3.10;;;2.35;;
15271;SDS011;7737;51.578;7.268;2023-04-01T07:15:43;2.88;;;2.40;;
15271;SDS011;7737;51.578;7.268;2023-04-01T07:18:16;2.80;;;2.50;;
15271;SDS011;7737;51.578;7.268;2023-04-01T07:20:47;3.40;;;2.53;;
15271;SDS011;7737;51.578;7.268;2023-04-01T07:23:17;2.22;;;2.08;;
15271;SDS011;7737;51.578;7.268;2023-04-01T07:25:51;2.30;;;2.10;;
15271;SDS011;7737;51.578;7.268;2023-04-01T07:28:21;2.00;;;1.90;;
15271;SDS011;7737;51.578;7.268;2023-04-01T07:30:51;2.22;;;2.03;;
15271;SDS011;7737;51.578;7.268;2023-04-01T07:33:27;1.90;;;1.80;;
15271;SDS011;7737;51.578;7.268;2023-04-01T07:36:05;3.65;;;2.20;;
15271;SDS011;7737;51.578;7.268;2023-04-01T07:38:40;2.42;;;2.17;;
15271;SDS011;7737;51.578;7.268;2023-04-01T07:41:19;2.08;;;1.88;;
15271;SDS011;7737;51.578;7.268;2023-04-01T07:43:55;2.40;;;2.00;;
15271;SDS011;7737;51.578;7.268;2023-04-01T07:49:30;2.15;;;2.05;;
15271;SDS011;7737;51.578;7.268;2023-04-01T07:52:10;2.38;;;2.17;;
15271;SDS011;7737;51.578;7.268;2023-04-01T07:54:47;2.45;;;2.20;;
15271;SDS011;7737;51.578;7.268;2023-04-01T07:57:19;2.72;;;2.50;;
15271;SDS011;7737;51.578;7.268;2023-04-01T07:59:53;2.53;;;2.33;;
15271;SDS011;7737;51.578;7.268;2023-04-01T08:02:30;2.67;;;2.47;;
15271;SDS011;7737;51.578;7.268;2023-04-01T08:05:13;3.08;;;2.42;;
15271;SDS011;7737;51.578;7.268;2023-04-01T08:07:47;4.53;;;2.70;;
15271;SDS011;7737;51.578;7.268;2023-04-01T08:10:26;3.50;;;2.58;;
15271;SDS011;7737;51.578;7.268;2023-04-01T08:13:01;3.63;;;2.88;;
15271;SDS011;7737;51.578;7.268;2023-04-01T08:15:36;3.47;;;3.17;;
15271;SDS011;7737;51.578;7.268;2023-04-01T08:18:11;3.92;;;2.90;;
15271;SDS011;7737;51.578;7.268;2023-04-01T08:20:47;3.60;;;3.22;;
15271;SDS011;7737;51.578;7.268;2023-04-01T08:23:18;3.08;;;2.88;;
15271;SDS011;7737;51.578;7.268;2023-04-01T08:25:51;3.58;;;3.28;;
15271;SDS011;7737;51.578;7.268;2023-04-01T08:28:23;4.05;;;3.60;;
15271;SDS011;7737;51.578;7.268;2023-04-01T08:30:56;3.92;;;3.50;;
15271;SDS011;7737;51.578;7.268;2023-04-01T08:33:27;4.00;;;3.63;;
15271;SDS011;7737;51.578;7.268;2023-04-01T08:35:56;4.25;;;3.95;;
15271;SDS011;7737;51.578;7.268;2023-04-01T08:38:29;4.20;;;3.80;;
15271;SDS011;7737;51.578;7.268;2023-04-01T08:41:00;4.57;;;4.18;;
15271;SDS011;7737;51.578;7.268;2023-04-01T08:46:55;4.57;;;3.95;;
15271;SDS011;7737;51.578;7.268;2023-04-01T08:49:36;4.20;;;3.80;;
15271;SDS011;7737;51.578;7.268;2023-04-01T08:52:30;4.50;;;4.13;;
15271;SDS011;7737;51.578;7.268;2023-04-01T08:55:10;4.68;;;4.20;;
15271;SDS011;7737;51.578;7.268;2023-04-01T08:58:15;4.63;;;4.22;;
15271;SDS011;7737;51.578;7.268;2023-04-01T09:00:53;5.63;;;4.50;;
15271;SDS011;7737;51.578;7.268;2023-04-01T09:06:24;4.53;;;4.22;;
15271;SDS011;7737;51.578;7.268;2023-04-01T09:09:06;5.35;;;4.40;;
15271;SDS011;7737;51.578;7.268;2023-04-01T09:11:53;4.72;;;4.32;;
15271;SDS011;7737;51.578;7.268;2023-04-01T09:14:34;5.43;;;4.93;;
15271;SDS011;7737;51.578;7.268;2023-04-01T09:20:40;5.47;;;4.97;;
15271;SDS011;7737;51.578;7.268;2023-04-01T09:23:20;5.45;;;4.95;;
15271;SDS011;7737;51.578;7.268;2023-04-01T09:26:18;6.13;;;5.53;;
15271;SDS011;7737;51.578;7.268;2023-04-01T09:28:58;8.23;;;6.28;;
15271;SDS011;7737;51.578;7.268;2023-04-01T09:31:55;6.53;;;5.93;;
15271;SDS011;7737;51.578;7.268;2023-04-01T09:34:53;6.90;;;6.20;;
15271;SDS011;7737;51.578;7.268;2023-04-01T09:37:21;6.88;;;6.20;;
15271;SDS011;7737;51.578;7.268;2023-04-01T09:40:02;7.80;;;7.10;;
15271;SDS011;7737;51.578;7.268;2023-04-01T09:42:44;7.30;;;6.68;;
15271;SDS011;7737;51.578;7.268;2023-04-01T09:45:19;7.80;;;6.97;;
15271;SDS011;7737;51.578;7.268;2023-04-01T09:48:00;7.88;;;6.70;;
15271;SDS011;7737;51.578;7.268;2023-04-01T09:50:38;7.38;;;6.75;;
15271;SDS011;7737;51.578;7.268;2023-04-01T09:53:14;7.85;;;7.15;;
15271;SDS011;7737;51.578;7.268;2023-04-01T09:56:08;8.10;;;7.40;;
15271;SDS011;7737;51.578;7.268;2023-04-01T10:01:52;7.78;;;7.07;;
15271;SDS011;7737;51.578;7.268;2023-04-01T10:04:35;7.80;;;7.15;;
15271;SDS011;7737;51.578;7.268;2023-04-01T10:07:28;8.68;;;7.88;;
15271;SDS011;7737;51.578;7.268;2023-04-01T10:10:34;8.48;;;7.68;;
15271;SDS011;7737;51.578;7.268;2023-04-01T10:13:30;7.57;;;6.88;;
15271;SDS011;7737;51.578;7.268;2023-04-01T10:16:19;8.52;;;7.68;;
15271;SDS011;7737;51.578;7.268;2023-04-01T10:21:58;7.75;;;7.05;;
15271;SDS011;7737;51.578;7.268;2023-04-01T10:24:42;8.20;;;7.50;;
15271;SDS011;7737;51.578;7.268;2023-04-01T10:27:33;7.63;;;6.97;;
15271;SDS011;7737;51.578;7.268;2023-04-01T10:36:34;8.13;;;7.40;;
15271;SDS011;7737;51.578;7.268;2023-04-01T10:45:29;6.72;;;6.18;;
15271;SDS011;7737;51.578;7.268;2023-04-01T10:48:23;7.65;;;6.90;;
15271;SDS011;7737;51.578;7.268;2023-04-01T10:51:12;7.75;;;7.05;;
15271;SDS011;7737;51.578;7.268;2023-04-01T10:54:03;6.63;;;6.03;;
15271;SDS011;7737;51.578;7.268;2023-04-01T10:56:51;6.32;;;5.72;;
15271;SDS011;7737;51.578;7.268;2023-04-01T11:02:40;5.95;;;5.45;;
15271;SDS011;7737;51.578;7.268;2023-04-01T11:05:36;5.68;;;5.18;;
15271;SDS011;7737;51.578;7.268;2023-04-01T11:08:38;6.75;;;6.15;;
15271;SDS011;7737;51.578;7.268;2023-04-01T11:15:01;6.47;;;5.60;;
15271;SDS011;7737;51.578;7.268;2023-04-01T11:24:15;5.97;;;5.47;;
15271;SDS011;7737;51.578;7.268;2023-04-01T11:26:51;6.07;;;5.57;;
15271;SDS011;7737;51.578;7.268;2023-04-01T11:29:29;5.78;;;5.28;;
15271;SDS011;7737;51.578;7.268;2023-04-01T11:32:13;6.82;;;6.22;;
15271;SDS011;7737;51.578;7.268;2023-04-01T11:34:59;7.38;;;6.68;;
15271;SDS011;7737;51.578;7.268;2023-04-01T11:37:39;8.00;;;7.30;;
15271;SDS011;7737;51.578;7.268;2023-04-01T11:40:16;8.18;;;7.28;;
15271;SDS011;7737;51.578;7.268;2023-04-01T11:42:52;8.65;;;7.90;;
15271;SDS011;7737;51.578;7.268;2023-04-01T11:45:31;7.82;;;7.13;;
15271;SDS011;7737;51.578;7.268;2023-04-01T11:48:07;9.98;;;8.93;;
15271;SDS011;7737;51.578;7.268;2023-04-01T11:50:54;9.30;;;8.30;;
15271;SDS011;7737;51.578;7.268;2023-04-01T11:53:38;9.73;;;8.73;;
15271;SDS011;7737;51.578;7.268;2023-04-01T11:56:13;11.45;;;10.27;;
15271;SDS011;7737;51.578;7.268;2023-04-01T11:59:11;10.82;;;9.73;;
15271;SDS011;7737;51.578;7.268;2023-04-01T12:01:51;10.57;;;9.57;;
15271;SDS011;7737;51.578;7.268;2023-04-01T12:04:33;13.45;;;12.15;;
15271;SDS011;7737;51.578;7.268;2023-04-01T12:07:15;13.13;;;11.80;;
15271;SDS011;7737;51.578;7.268;2023-04-01T12:09:49;13.55;;;12.18;;
15271;SDS011;7737;51.578;7.268;2023-04-01T12:12:27;13.50;;;12.10;;
15271;SDS011;7737;51.578;7.268;2023-04-01T12:15:11;10.85;;;9.75;;
15271;SDS011;7737;51.578;7.268;2023-04-01T12:17:46;10.90;;;9.80;;
15271;SDS011;7737;51.578;7.268;2023-04-01T12:20:24;10.32;;;9.10;;
15271;SDS011;7737;51.578;7.268;2023-04-01T12:23:03;9.13;;;8.32;;
15271;SDS011;7737;51.578;7.268;2023-04-01T12:28:37;8.38;;;7.57;;
15271;SDS011;7737;51.578;7.268;2023-04-01T12:31:18;7.88;;;7.18;;
15271;SDS011;7737;51.578;7.268;2023-04-01T12:33:54;9.07;;;8.27;;
15271;SDS011;7737;51.578;7.268;2023-04-01T12:36:37;8.52;;;7.72;;
15271;SDS011;7737;51.578;7.268;2023-04-01T12:39:22;7.65;;;6.95;;
15271;SDS011;7737;51.578;7.268;2023-04-01T12:42:04;7.68;;;6.88;;
15271;SDS011;7737;51.578;7.268;2023-04-01T12:44:47;7.85;;;7.15;;
15271;SDS011;7737;51.578;7.268;2023-04-01T12:47:30;7.07;;;6.38;;
15271;SDS011;7737;51.578;7.268;2023-04-01T12:50:19;8.05;;;7.25;;
15271;SDS011;7737;51.578;7.268;2023-04-01T12:52:58;8.05;;;7.35;;
15271;SDS011;7737;51.578;7.268;2023-04-01T12:55:37;8.02;;;7.18;;
15271;SDS011;7737;51.578;7.268;2023-04-01T13:01:12;8.85;;;8.00;;
15271;SDS011;7737;51.578;7.268;2023-04-01T13:03:59;6.78;;;6.13;;
15271;SDS011;7737;51.578;7.268;2023-04-01T13:06:42;7.15;;;6.45;;
15271;SDS011;7737;51.578;7.268;2023-04-01T13:09:22;6.38;;;5.78;;
15271;SDS011;7737;51.578;7.268;2023-04-01T13:12:15;6.57;;;5.35;;
15271;SDS011;7737;51.578;7.268;2023-04-01T13:15:03;6.40;;;5.80;;
15271;SDS011;7737;51.578;7.268;2023-04-01T13:17:49;6.10;;;5.50;;
15271;SDS011;7737;51.578;7.268;2023-04-01T13:20:20;6.03;;;5.13;;
15271;SDS011;7737;51.578;7.268;2023-04-01T13:22:58;5.60;;;5.10;;
15271;SDS011;7737;51.578;7.268;2023-04-01T13:25:35;5.32;;;4.82;;
15271;SDS011;7737;51.578;7.268;2023-04-01T13:28:08;6.20;;;5.60;;
15271;SDS011;7737;51.578;7.268;2023-04-01T13:30:42;6.32;;;5.72;;
15271;SDS011;7737;51.578;7.268;2023-04-01T13:33:15;5.70;;;5.20;;
15271;SDS011;7737;51.578;7.268;2023-04-01T13:35:48;6.03;;;5.40;;
15271;SDS011;7737;51.578;7.268;2023-04-01T13:38:30;6.30;;;5.70;;
15271;SDS011;7737;51.578;7.268;2023-04-01T13:41:13;6.15;;;5.55;;
15271;SDS011;7737;51.578;7.268;2023-04-01T13:43:49;6.95;;;6.05;;
15271;SDS011;7737;51.578;7.268;2023-04-01T13:46:25;6.47;;;5.88;;
15271;SDS011;7737;51.578;7.268;2023-04-01T13:52:12;8.18;;;6.30;;
15271;SDS011;7737;51.578;7.268;2023-04-01T13:55:00;6.18;;;5.57;;
15271;SDS011;7737;51.578;7.268;2023-04-01T13:57:50;5.53;;;5.03;;
15271;SDS011;7737;51.578;7.268;2023-04-01T14:00:27;5.70;;;5.10;;
15271;SDS011;7737;51.578;7.268;2023-04-01T14:03:11;5.05;;;4.55;;
15271;SDS011;7737;51.578;7.268;2023-04-01T14:05:54;5.03;;;4.40;;
15271;SDS011;7737;51.578;7.268;2023-04-01T14:08:31;4.93;;;4.40;;
15271;SDS011;7737;51.578;7.268;2023-04-01T14:11:10;6.50;;;5.63;;
15271;SDS011;7737;51.578;7.268;2023-04-01T14:13:47;5.85;;;4.80;;
15271;SDS011;7737;51.578;7.268;2023-04-01T14:19:24;5.55;;;4.97;;
15271;SDS011;7737;51.578;7.268;2023-04-01T14:22:03;5.22;;;4.70;;
15271;SDS011;7737;51.578;7.268;2023-04-01T14:24:42;4.95;;;4.45;;
15271;SDS011;7737;51.578;7.268;2023-04-01T14:27:21;4.10;;;3.70;;
15271;SDS011;7737;51.578;7.268;2023-04-01T14:30:14;5.72;;;5.22;;
15271;SDS011;7737;51.578;7.268;2023-04-01T14:32:57;5.20;;;4.70;;
15271;SDS011;7737;51.578;7.268;2023-04-01T14:35:35;6.75;;;6.15;;
15271;SDS011;7737;51.578;7.268;2023-04-01T14:40:56;6.65;;;6.05;;
15271;SDS011;7737;51.578;7.268;2023-04-01T14:43:47;7.70;;;7.00;;
15271;SDS011;7737;51.578;7.268;2023-04-01T14:46:26;8.25;;;7.45;;
15271;SDS011;7737;51.578;7.268;2023-04-01T14:49:01;8.80;;;8.00;;
15271;SDS011;7737;51.578;7.268;2023-04-01T14:51:32;8.80;;;7.90;;
15271;SDS011;7737;51.578;7.268;2023-04-01T14:54:04;8.73;;;7.93;;
15271;SDS011;7737;51.578;7.268;2023-04-01T14:56:35;8.23;;;7.53;;
15271;SDS011;7737;51.578;7.268;2023-04-01T14:59:06;8.23;;;7.53;;
15271;SDS011;7737;51.578;7.268;2023-04-01T15:01:37;8.35;;;7.65;;
15271;SDS011;7737;51.578;7.268;2023-04-01T15:04:24;8.68;;;7.88;;
15271;SDS011;7737;51.578;7.268;2023-04-01T15:07:10;8.52;;;7.72;;
15271;SDS011;7737;51.578;7.268;2023-04-01T15:09:48;9.98;;;9.10;;
15271;SDS011;7737;51.578;7.268;2023-04-01T15:12:23;9.55;;;8.65;;
15271;SDS011;7737;51.578;7.268;2023-04-01T15:15:02;10.20;;;9.25;;
15271;SDS011;7737;51.578;7.268;2023-04-01T15:17:53;9.98;;;8.98;;
15271;SDS011;7737;51.578;7.268;2023-04-01T15:20:35;9.20;;;8.30;;
15271;SDS011;7737;51.578;7.268;2023-04-01T15:23:28;9.10;;;8.23;;
15271;SDS011;7737;51.578;7.268;2023-04-01T15:29:07;8.30;;;7.60;;
15271;SDS011;7737;51.578;7.268;2023-04-01T15:31:50;7.82;;;7.13;;
15271;SDS011;7737;51.578;7.268;2023-04-01T15:34:28;8.02;;;7.32;;
15271;SDS011;7737;51.578;7.268;2023-04-01T15:37:02;8.65;;;7.85;;
15271;SDS011;7737;51.578;7.268;2023-04-01T15:39:41;9.65;;;8.77;;
15271;SDS011;7737;51.578;7.268;2023-04-01T15:42:27;14.20;;;12.82;;
15271;SDS011;7737;51.578;7.268;2023-04-01T15:45:08;10.90;;;9.80;;
15271;SDS011;7737;51.578;7.268;2023-04-01T15:48:01;11.23;;;10.15;;
15271;SDS011;7737;51.578;7.268;2023-04-01T15:50:40;11.32;;;10.40;;
15271;SDS011;7737;51.578;7.268;2023-04-01T15:53:18;10.23;;;9.32;;
15271;SDS011;7737;51.578;7.268;2023-04-01T15:55:59;11.10;;;10.05;;
15271;SDS011;7737;51.578;7.268;2023-04-01T15:58:45;11.10;;;10.18;;
15271;SDS011;7737;51.578;7.268;2023-04-01T16:01:24;9.60;;;8.70;;
15271;SDS011;7737;51.578;7.268;2023-04-01T16:03:59;9.30;;;8.50;;
15271;SDS011;7737;51.578;7.268;2023-04-01T16:06:49;12.13;;;11.02;;
15271;SDS011;7737;51.578;7.268;2023-04-01T16:09:31;9.70;;;8.85;;
15271;SDS011;7737;51.578;7.268;2023-04-01T16:12:07;10.25;;;9.35;;
15271;SDS011;7737;51.578;7.268;2023-04-01T16:14:44;8.27;;;7.47;;
15271;SDS011;7737;51.578;7.268;2023-04-01T16:20:17;15.07;;;13.52;;
15271;SDS011;7737;51.578;7.268;2023-04-01T16:22:50;10.73;;;9.63;;
15271;SDS011;7737;51.578;7.268;2023-04-01T16:25:26;8.68;;;7.70;;
15271;SDS011;7737;51.578;7.268;2023-04-01T16:28:04;12.48;;;11.30;;
15271;SDS011;7737;51.578;7.268;2023-04-01T16:30:44;10.27;;;9.27;;
15271;SDS011;7737;51.578;7.268;2023-04-01T16:33:15;8.13;;;7.30;;
15271;SDS011;7737;51.578;7.268;2023-04-01T16:35:52;4.80;;;4.40;;
15271;SDS011;7737;51.578;7.268;2023-04-01T16:38:24;6.93;;;6.32;;
15271;SDS011;7737;51.578;7.268;2023-04-01T16:41:06;7.15;;;6.45;;
15271;SDS011;7737;51.578;7.268;2023-04-01T16:43:38;7.10;;;6.40;;
15271;SDS011;7737;51.578;7.268;2023-04-01T16:49:03;4.50;;;4.10;;
15271;SDS011;7737;51.578;7.268;2023-04-01T16:51:44;4.82;;;4.43;;
15271;SDS011;7737;51.578;7.268;2023-04-01T16:54:18;9.43;;;8.50;;
15271;SDS011;7737;51.578;7.268;2023-04-01T16:56:55;14.05;;;12.65;;
15271;SDS011;7737;51.578;7.268;2023-04-01T16:59:29;6.93;;;6.32;;
15271;SDS011;7737;51.578;7.268;2023-04-01T17:02:02;8.88;;;8.18;;
15271;SDS011;7737;51.578;7.268;2023-04-01T17:04:36;6.18;;;5.57;;
15271;SDS011;7737;51.578;7.268;2023-04-01T17:07:11;8.55;;;7.75;;